Time;durP1;ratioP1;P1;durP2;ratioP2;P2;SDS_P1;SDS_P2;PMS_P1;PMS_P2;Temp;Humidity;BMP_temperature;BMP_pressure;BME280_temperature;BME280_humidity;BME280_pressure;Samples;Min_cycle;Max_cycle;Signal;HPM_P1;HPM_P2
2024/03/31 00:00:48;;;;;;;24.83;4.38;;;;;;;;;;5024613;28;20026;-74
2024/03/31 00:03:14;;;;;;;28.52;4.32;;;;;;;;;;5024675;28;20038;-74
2024/03/31 00:05:40;;;;;;;30.40;5.00;;;;;;;;;;5020206;28;20414;-74
2024/03/31 00:08:06;;;;;;;26.48;4.53;;;;;;;;;;5021190;28;20029;-74
2024/03/31 00:10:32;;;;;;;23.73;4.35;;;;;;;;;;5028211;28;20041;-74
2024/03/31 00:12:58;;;;;;;19.88;3.75;;;;;;;;;;5028777;28;20274;-75
2024/03/31 00:15:24;;;;;;;22.27;4.80;;;;;;;;;;5029581;28;20542;-74
2024/03/31 00:17:51;;;;;;;26.10;3.60;;;;;;;;;;5027225;28;20489;-75
2024/03/31 00:20:17;;;;;;;26.98;4.47;;;;;;;;;;5026859;28;20470;-74
2024/03/31 00:22:43;;;;;;;21.58;3.42;;;;;;;;;;5025845;28;20080;-74
2024/03/31 00:25:09;;;;;;;21.48;4.05;;;;;;;;;;5029244;28;20523;-74
2024/03/31 00:27:35;;;;;;;15.45;3.35;;;;;;;;;;5028581;28;20036;-74
2024/03/31 00:30:01;;;;;;;13.30;3.60;;;;;;;;;;5028907;28;20063;-75
2024/03/31 00:32:27;;;;;;;13.68;4.47;;;;;;;;;;5027634;28;20029;-74
2024/03/31 00:34:53;;;;;;;13.30;3.05;;;;;;;;;;5027171;28;20083;-73
2024/03/31 00:37:19;;;;;;;16.60;3.17;;;;;;;;;;5027784;28;20061;-74
2024/03/31 00:39:45;;;;;;;25.70;4.30;;;;;;;;;;5025992;28;20029;-73
2024/03/31 00:42:11;;;;;;;16.77;3.30;;;;;;;;;;5025567;28;20093;-74
2024/03/31 00:44:37;;;;;;;19.98;4.35;;;;;;;;;;5025911;28;20139;-74
2024/03/31 00:47:03;;;;;;;20.88;4.95;;;;;;;;;;5027588;28;20029;-74
2024/03/31 00:49:29;;;;;;;26.10;4.68;;;;;;;;;;5029409;28;20099;-74
2024/03/31 00:51:55;;;;;;;22.65;5.55;;;;;;;;;;5026709;28;20030;-74
2024/03/31 00:54:21;;;;;;;17.13;4.95;;;;;;;;;;5025599;28;20157;-74
2024/03/31 00:56:47;;;;;;;30.52;6.05;;;;;;;;;;5024585;28;20033;-73
2024/03/31 00:59:13;;;;;;;28.38;7.00;;;;;;;;;;5025449;28;20420;-73
2024/03/31 01:01:39;;;;;;;34.17;6.50;;;;;;;;;;5024704;28;20044;-73
2024/03/31 01:04:05;;;;;;;23.98;5.65;;;;;;;;;;5027749;28;20463;-74
2024/03/31 01:06:31;;;;;;;23.10;5.72;;;;;;;;;;5027167;28;20105;-74
2024/03/31 01:08:57;;;;;;;15.40;5.10;;;;;;;;;;5027173;28;20200;-74
2024/03/31 01:11:23;;;;;;;28.15;7.18;;;;;;;;;;5027094;28;20058;-74
2024/03/31 01:13:49;;;;;;;22.52;5.93;;;;;;;;;;5025031;28;20096;-74
2024/03/31 01:16:15;;;;;;;25.80;6.18;;;;;;;;;;5025125;28;20029;-75
2024/03/31 01:18:42;;;;;;;26.88;4.88;;;;;;;;;;5027729;28;20061;-74
2024/03/31 01:21:09;;;;;;;18.05;4.95;;;;;;;;;;5027883;28;20120;-74
2024/03/31 01:23:44;;;;;;;17.17;4.53;;;;;;;;;;5028148;28;20083;-74
2024/03/31 01:26:11;;;;;;;23.60;4.90;;;;;;;;;;5027603;28;20036;-74
2024/03/31 01:28:37;;;;;;;20.63;5.28;;;;;;;;;;5026374;28;20037;-74
2024/03/31 01:31:03;;;;;;;18.00;5.18;;;;;;;;;;5025378;28;20375;-74
2024/03/31 01:33:29;;;;;;;24.63;5.57;;;;;;;;;;5027437;28;20033;-74
2024/03/31 01:36:02;;;;;;;29.10;7.38;;;;;;;;;;5025619;28;20032;-74
2024/03/31 01:38:28;;;;;;;20.30;5.32;;;;;;;;;;5024975;28;20036;-74
2024/03/31 01:40:54;;;;;;;23.65;5.35;;;;;;;;;;5027107;28;20048;-74
2024/03/31 01:43:20;;;;;;;25.70;5.22;;;;;;;;;;5028056;28;20049;-74
2024/03/31 01:45:47;;;;;;;25.75;4.97;;;;;;;;;;5023964;28;20026;-75
2024/03/31 01:48:13;;;;;;;19.33;5.22;;;;;;;;;;5028081;28;20488;-74
2024/03/31 01:50:39;;;;;;;31.17;6.68;;;;;;;;;;5027535;28;20112;-73
2024/03/31 01:53:05;;;;;;;30.60;5.60;;;;;;;;;;5027598;28;20036;-74
2024/03/31 01:55:31;;;;;;;33.47;6.45;;;;;;;;;;5027941;28;20370;-74
2024/03/31 01:57:57;;;;;;;29.48;6.93;;;;;;;;;;5027328;28;20072;-74
2024/03/31 02:00:23;;;;;;;25.08;5.45;;;;;;;;;;5024688;28;20021;-74
2024/03/31 02:02:49;;;;;;;25.77;5.85;;;;;;;;;;5023686;28;20076;-74
2024/03/31 02:05:14;;;;;;;21.95;5.00;;;;;;;;;;5023777;28;20204;-74
2024/03/31 02:07:40;;;;;;;24.48;6.15;;;;;;;;;;5027056;28;20029;-73
2024/03/31 02:10:07;;;;;;;21.98;5.32;;;;;;;;;;5026945;28;20134;-74
2024/03/31 02:12:36;;;;;;;16.42;5.22;;;;;;;;;;5027046;28;20131;-75
2024/03/31 02:15:02;;;;;;;23.67;5.78;;;;;;;;;;5025982;28;20025;-74
2024/03/31 02:17:28;;;;;;;37.85;5.72;;;;;;;;;;5027097;28;20095;-74
2024/03/31 02:19:54;;;;;;;30.67;6.15;;;;;;;;;;5026465;28;20064;-74
2024/03/31 02:22:20;;;;;;;19.67;5.53;;;;;;;;;;5025928;28;20053;-75
2024/03/31 02:24:46;;;;;;;30.60;6.70;;;;;;;;;;5026737;28;20021;-74
2024/03/31 02:27:12;;;;;;;34.47;5.60;;;;;;;;;;5025737;28;20127;-74
2024/03/31 02:29:39;;;;;;;46.83;5.63;;;;;;;;;;5025858;28;20032;-73
2024/03/31 02:32:06;;;;;;;25.60;5.30;;;;;;;;;;5026264;28;20541;-74
2024/03/31 02:34:32;;;;;;;32.15;6.35;;;;;;;;;;5025927;28;20030;-73
2024/03/31 02:36:58;;;;;;;28.88;5.35;;;;;;;;;;5024866;28;20627;-74
2024/03/31 02:39:24;;;;;;;31.63;6.45;;;;;;;;;;5027658;28;20029;-74
2024/03/31 02:41:50;;;;;;;30.30;6.03;;;;;;;;;;5025392;28;20049;-74
2024/03/31 02:44:16;;;;;;;31.75;6.05;;;;;;;;;;5026939;28;20025;-74
2024/03/31 02:46:42;;;;;;;22.13;5.60;;;;;;;;;;5025508;28;20036;-74
2024/03/31 02:49:08;;;;;;;39.33;5.57;;;;;;;;;;5026735;28;20035;-74
2024/03/31 02:51:35;;;;;;;26.33;5.25;;;;;;;;;;5027207;28;20150;-74
2024/03/31 02:54:01;;;;;;;33.28;6.28;;;;;;;;;;5021978;28;20030;-73
2024/03/31 02:56:27;;;;;;;26.58;5.45;;;;;;;;;;5026069;28;20032;-74
2024/03/31 02:58:53;;;;;;;37.65;5.65;;;;;;;;;;5027054;28;20026;-74
2024/03/31 03:01:20;;;;;;;31.45;4.75;;;;;;;;;;5025634;28;20072;-74
2024/03/31 03:03:46;;;;;;;22.17;3.88;;;;;;;;;;5024912;28;20460;-74
2024/03/31 03:06:12;;;;;;;25.08;3.65;;;;;;;;;;5024732;28;20030;-74
2024/03/31 03:08:41;;;;;;;19.48;3.80;;;;;;;;;;5025377;28;20132;-73
2024/03/31 03:11:07;;;;;;;21.38;4.13;;;;;;;;;;5033318;28;20030;-74
2024/03/31 03:13:34;;;;;;;25.33;3.83;;;;;;;;;;5021680;28;20025;-74
2024/03/31 03:16:03;;;;;;;23.02;4.57;;;;;;;;;;5023765;28;20519;-74
2024/03/31 03:18:29;;;;;;;28.17;4.60;;;;;;;;;;5037423;28;20025;-74
2024/03/31 03:20:58;;;;;;;17.98;3.17;;;;;;;;;;5024617;28;20030;-74
2024/03/31 03:23:25;;;;;;;25.42;4.85;;;;;;;;;;5027102;28;20032;-75
2024/03/31 03:25:54;;;;;;;25.15;3.95;;;;;;;;;;5025088;28;20025;-74
2024/03/31 03:28:20;;;;;;;24.67;5.30;;;;;;;;;;5022774;28;20072;-75
2024/03/31 03:30:47;;;;;;;22.35;3.85;;;;;;;;;;5025166;28;20033;-75
2024/03/31 03:33:13;;;;;;;35.60;5.20;;;;;;;;;;5026965;28;20079;-75
2024/03/31 03:35:39;;;;;;;38.88;5.28;;;;;;;;;;5026298;28;20474;-76
2024/03/31 03:38:05;;;;;;;32.85;4.65;;;;;;;;;;5026099;28;20049;-74
2024/03/31 03:40:31;;;;;;;18.20;4.03;;;;;;;;;;5026779;28;20034;-75
2024/03/31 03:42:57;;;;;;;31.48;4.60;;;;;;;;;;5025519;28;20041;-75
2024/03/31 03:45:23;;;;;;;20.45;4.15;;;;;;;;;;5024673;28;20381;-74
2024/03/31 03:47:49;;;;;;;20.48;4.28;;;;;;;;;;5028694;28;20051;-75
2024/03/31 03:50:15;;;;;;;26.95;4.57;;;;;;;;;;5030154;28;20044;-74
2024/03/31 03:52:41;;;;;;;19.77;3.22;;;8.50;99.90;;;;;;5029043;28;20029;-74
2024/03/31 03:55:06;;;;;;;17.42;4.00;;;8.40;99.90;;;;;;5031504;28;20033;-74
2024/03/31 03:57:33;;;;;;;18.38;3.65;;;8.20;99.90;;;;;;5028357;28;20056;-74
2024/03/31 03:59:58;;;;;;;21.70;4.40;;;8.20;99.90;;;;;;5026608;28;20378;-75
2024/03/31 04:02:24;;;;;;;18.88;4.10;;;8.10;99.90;;;;;;5025427;28;20037;-76
2024/03/31 04:04:50;;;;;;;30.67;4.40;;;8.00;99.90;;;;;;5023985;28;20058;-74
2024/03/31 04:07:16;;;;;;;17.13;4.68;;;8.00;99.90;;;;;;5020006;28;20044;-74
2024/03/31 04:09:42;;;;;;;26.48;4.70;;;7.90;99.90;;;;;;5029604;28;20030;-74
2024/03/31 04:12:08;;;;;;;18.20;4.10;;;7.90;99.90;;;;;;5028799;28;20041;-74
2024/03/31 04:14:33;;;;;;;23.00;5.20;;;7.90;99.90;;;;;;5027666;28;20040;-74
2024/03/31 04:16:59;;;;;;;25.88;5.10;;;8.00;99.90;;;;;;5027633;28;20528;-74
2024/03/31 04:19:28;;;;;;;20.58;5.00;;;8.00;99.90;;;;;;5028452;28;20040;-75
2024/03/31 04:21:53;;;;;;;21.73;4.82;;;8.10;99.90;;;;;;5029249;28;20030;-75
2024/03/31 04:24:19;;;;;;;17.35;4.63;;;8.10;99.90;;;;;;5029308;28;20540;-75
2024/03/31 04:26:45;;;;;;;13.48;4.15;;;8.10;99.90;;;;;;5028469;28;20057;-74
2024/03/31 04:29:10;;;;;;;19.75;5.50;;;8.20;99.90;;;;;;5028323;28;20026;-74
2024/03/31 04:31:53;;;;;;;17.48;5.15;;;8.20;99.90;;;;;;5029377;28;20159;-74
2024/03/31 04:34:19;;;;;;;24.35;5.90;;;8.20;99.90;;;;;;5023367;28;20034;-75
2024/03/31 04:36:45;;;;;;;23.08;5.15;;;8.30;99.90;;;;;;5024594;28;20045;-74
2024/03/31 04:39:11;;;;;;;33.95;6.13;;;8.30;99.90;;;;;;5030168;28;20029;-74
2024/03/31 04:41:36;;;;;;;33.20;6.53;;;8.40;99.90;;;;;;5028615;28;20403;-74
2024/03/31 04:44:02;;;;;;;25.85;7.47;;;8.40;99.90;;;;;;5027948;28;20032;-74
2024/03/31 04:46:27;;;;;;;25.70;7.13;;;8.50;99.90;;;;;;5007941;28;20468;-72
2024/03/31 04:48:53;;;;;;;28.63;7.13;;;8.60;99.90;;;;;;5024974;28;20100;-74
2024/03/31 04:51:18;;;;;;;23.55;7.00;;;8.60;99.90;;;;;;5029167;28;20090;-75
2024/03/31 04:53:44;;;;;;;32.03;7.65;;;8.70;99.90;;;;;;5029725;28;20032;-74
2024/03/31 04:56:10;;;;;;;29.23;6.70;;;8.60;99.90;;;;;;5027383;28;20075;-76
2024/03/31 04:58:36;;;;;;;30.40;7.95;;;8.60;99.90;;;;;;5028128;28;20108;-76
2024/03/31 05:01:01;;;;;;;32.35;7.53;;;8.70;99.90;;;;;;5028596;28;20061;-74
2024/03/31 05:03:27;;;;;;;23.92;7.50;;;8.60;99.90;;;;;;5022614;28;20071;-73
2024/03/31 05:05:53;;;;;;;23.05;6.70;;;8.60;99.90;;;;;;5027002;28;20052;-73
2024/03/31 05:08:18;;;;;;;30.85;7.50;;;8.50;99.90;;;;;;5028800;28;20037;-73
2024/03/31 05:10:57;;;;;;;22.92;6.97;;;8.40;99.90;;;;;;5024919;28;20033;-73
2024/03/31 05:13:32;;;;;;;32.45;7.53;;;8.30;99.90;;;;;;5029143;28;20052;-74
2024/03/31 05:16:02;;;;;;;33.22;10.18;;;8.30;99.90;;;;;;5026883;28;20213;-73
2024/03/31 05:18:28;;;;;;;35.67;10.88;;;8.40;99.90;;;;;;5021133;28;20033;-74
2024/03/31 05:20:59;;;;;;;38.67;10.18;;;8.40;99.90;;;;;;5024770;28;20469;-73
2024/03/31 05:23:25;;;;;;;28.52;9.77;;;8.40;99.90;;;;;;5024727;28;20057;-73
2024/03/31 05:25:52;;;;;;;31.98;9.20;;;8.40;99.90;;;;;;5027304;28;20450;-73
2024/03/31 05:28:18;;;;;;;28.23;8.52;;;8.40;99.90;;;;;;5027221;28;20041;-74
2024/03/31 05:30:44;;;;;;;28.38;8.73;;;8.40;99.90;;;;;;5028302;28;20510;-74
2024/03/31 05:33:10;;;;;;;24.85;7.80;;;8.40;99.90;;;;;;5027880;28;20083;-73
2024/03/31 05:35:35;;;;;;;29.08;7.05;;;8.40;99.90;;;;;;5028407;28;20029;-74
2024/03/31 05:38:01;;;;;;;29.17;9.07;;;8.40;99.90;;;;;;5028360;28;20072;-74
2024/03/31 05:40:26;;;;;;;20.02;7.90;;;8.40;99.90;;;;;;5024575;28;20028;-73
2024/03/31 05:42:53;;;;;;;28.88;7.32;;;8.40;99.90;;;;;;5027448;28;20032;-74
2024/03/31 05:45:18;;;;;;;30.70;8.48;;;8.40;99.90;;;;;;5027315;28;20040;-74
2024/03/31 05:47:44;;;;;;;21.23;7.50;;;8.40;99.90;;;;;;5026734;28;20029;-74
2024/03/31 05:50:10;;;;;;;19.23;7.15;;;8.50;99.90;;;;;;5028593;28;20061;-74
2024/03/31 05:52:35;;;;;;;18.73;6.50;;;8.50;99.90;;;;;;5025749;28;20029;-74
2024/03/31 05:55:01;;;;;;;24.60;7.22;;;8.60;99.90;;;;;;5024735;28;20113;-73
2024/03/31 05:57:26;;;;;;;26.83;6.28;;;8.60;99.90;;;;;;5024004;28;20112;-76
2024/03/31 05:59:52;;;;;;;23.75;6.43;;;8.80;99.90;;;;;;5025371;28;20064;-73
2024/03/31 06:02:17;;;;;;;31.30;6.63;;;8.80;99.90;;;;;;5030446;28;20027;-75
2024/03/31 06:04:43;;;;;;;22.45;5.93;;;8.80;99.90;;;;;;5026739;28;20963;-74
2024/03/31 06:07:09;;;;;;;23.38;6.07;;;8.80;99.90;;;;;;5027740;28;20096;-76
2024/03/31 06:09:34;;;;;;;20.05;5.00;;;8.90;99.90;;;;;;5027073;28;20045;-76
2024/03/31 06:12:00;;;;;;;21.50;5.45;;;8.90;99.90;;;;;;5026917;28;20029;-74
2024/03/31 06:14:25;;;;;;;27.98;6.00;;;8.90;99.90;;;;;;5022608;28;20038;-74
2024/03/31 06:16:51;;;;;;;19.88;5.35;;;9.00;99.90;;;;;;5024090;28;20087;-75
2024/03/31 06:19:17;;;;;;;33.25;5.32;;;9.00;99.90;;;;;;5029900;28;20132;-73
2024/03/31 06:21:42;;;;;;;15.98;5.15;;;9.00;99.90;;;;;;5025403;28;20470;-73
2024/03/31 06:24:10;;;;;;;19.23;5.07;;;9.10;99.90;;;;;;5027110;28;20133;-73
2024/03/31 06:26:36;;;;;;;23.75;4.97;;;9.10;99.90;;;;;;5025968;28;20032;-72
2024/03/31 06:29:03;;;;;;;18.85;5.25;;;9.20;99.90;;;;;;5025887;28;20498;-72
2024/03/31 06:31:28;;;;;;;23.73;4.85;;;9.30;99.90;;;;;;5026637;28;20030;-72
2024/03/31 06:33:55;;;;;;;22.10;4.90;;;9.40;99.90;;;;;;5024838;28;20032;-71
2024/03/31 06:36:21;;;;;;;18.95;4.60;;;9.50;99.90;;;;;;5022248;28;20103;-72
2024/03/31 06:38:50;;;;;;;24.60;4.60;;;9.60;99.90;;;;;;5026878;28;20037;-74
2024/03/31 06:41:15;;;;;;;18.42;4.97;;;9.70;99.90;;;;;;5025726;28;20033;-73
2024/03/31 06:43:41;;;;;;;28.48;4.85;;;9.80;99.90;;;;;;5026027;28;20079;-71
2024/03/31 06:46:06;;;;;;;13.95;4.28;;;9.80;99.90;;;;;;5025407;28;20033;-71
2024/03/31 06:48:33;;;;;;;20.20;4.80;;;9.90;99.90;;;;;;5025190;28;20481;-74
2024/03/31 06:50:59;;;;;;;22.95;5.88;;;9.90;99.90;;;;;;5026457;28;20056;-71
2024/03/31 06:53:24;;;;;;;20.00;5.47;;;10.00;99.90;;;;;;5022390;28;20472;-71
2024/03/31 06:55:50;;;;;;;28.65;5.18;;;10.10;99.90;;;;;;5026559;28;20091;-76
2024/03/31 06:58:15;;;;;;;20.05;5.43;;;10.20;99.90;;;;;;5027118;28;20470;-72
2024/03/31 07:00:41;;;;;;;25.95;5.18;;;10.30;99.90;;;;;;5023610;28;20100;-73
2024/03/31 07:03:07;;;;;;;27.45;5.75;;;10.20;99.90;;;;;;5027022;28;20029;-73
2024/03/31 07:05:32;;;;;;;29.02;6.28;;;10.20;99.90;;;;;;5024694;28;20049;-72
2024/03/31 07:07:58;;;;;;;25.50;5.30;;;10.10;99.90;;;;;;5022165;28;20045;-72
2024/03/31 07:10:23;;;;;;;28.80;5.85;;;10.10;99.90;;;;;;5024751;28;20467;-73
2024/03/31 07:12:49;;;;;;;31.00;5.80;;;10.20;99.90;;;;;;5025358;28;20382;-72
2024/03/31 07:15:15;;;;;;;33.05;5.53;;;10.20;99.90;;;;;;5027747;28;20042;-72
2024/03/31 07:17:43;;;;;;;23.08;5.70;;;10.10;99.90;;;;;;5028519;28;20037;-72
2024/03/31 07:20:09;;;;;;;24.95;6.85;;;10.10;99.90;;;;;;5028001;28;20082;-72
2024/03/31 07:22:35;;;;;;;28.85;6.63;;;10.10;99.90;;;;;;5030889;28;20441;-73
2024/03/31 07:25:00;;;;;;;18.60;4.75;;;10.00;99.90;;;;;;5030323;28;20029;-73
2024/03/31 07:27:26;;;;;;;17.73;4.28;;;10.10;99.90;;;;;;5025604;28;20040;-72
2024/03/31 07:29:52;;;;;;;31.08;5.63;;;10.10;99.90;;;;;;5030122;28;20064;-71
2024/03/31 07:32:17;;;;;;;27.27;6.38;;;10.20;99.90;;;;;;5027006;28;20113;-73
2024/03/31 07:34:43;;;;;;;24.02;4.30;;;10.30;99.90;;;;;;5027116;28;20158;-73
2024/03/31 07:37:09;;;;;;;22.98;4.30;;;10.40;99.90;;;;;;5028826;28;20037;-72
2024/03/31 07:39:35;;;;;;;22.70;4.30;;;10.50;99.90;;;;;;5028881;28;20099;-73
2024/03/31 07:42:01;;;;;;;24.65;4.65;;;10.60;99.90;;;;;;5026899;28;20146;-73
2024/03/31 07:44:27;;;;;;;21.52;4.30;;;10.70;99.90;;;;;;5025777;28;20159;-72
2024/03/31 07:46:52;;;;;;;25.10;4.63;;;11.00;99.90;;;;;;5026860;28;20116;-74
2024/03/31 07:49:18;;;;;;;23.42;5.07;;;11.10;99.90;;;;;;5029773;28;20053;-74
2024/03/31 07:51:43;;;;;;;18.88;4.00;;;11.30;99.90;;;;;;5025977;28;20041;-74
2024/03/31 07:54:09;;;;;;;27.30;4.85;;;11.40;99.90;;;;;;5039319;28;20703;-72
2024/03/31 07:56:34;;;;;;;17.15;3.58;;;11.60;99.90;;;;;;5038719;28;20041;-73
2024/03/31 07:59:00;;;;;;;23.88;4.78;;;11.80;99.90;;;;;;5033040;28;20116;-73
2024/03/31 08:01:25;;;;;;;28.65;4.18;;;12.00;99.90;;;;;;5035528;28;20032;-73
2024/03/31 08:03:51;;;;;;;18.70;3.70;;;12.00;99.90;;;;;;5040791;28;20029;-73
2024/03/31 08:06:17;;;;;;;21.90;3.13;;;12.00;99.90;;;;;;5037225;28;20032;-74
2024/03/31 08:08:42;;;;;;;27.83;4.00;;;12.00;99.90;;;;;;5030577;28;20033;-74
2024/03/31 08:11:08;;;;;;;25.05;4.97;;;12.20;99.90;;;;;;5030683;28;20761;-72
2024/03/31 08:13:35;;;;;;;25.42;4.50;;;12.30;99.90;;;;;;5024699;28;20034;-73
2024/03/31 08:16:01;;;;;;;20.83;3.95;;;12.50;99.90;;;;;;5029646;28;20032;-74
2024/03/31 08:18:27;;;;;;;20.35;4.32;;;12.40;99.90;;;;;;5026924;28;20036;-78
2024/03/31 08:20:52;;;;;;;19.80;3.70;;;12.40;99.90;;;;;;5031184;28;20112;-76
2024/03/31 08:23:18;;;;;;;21.02;3.83;;;12.40;99.90;;;;;;5026483;28;20025;-76
2024/03/31 08:25:50;;;;;;;30.65;4.93;;;12.40;99.90;;;;;;5027251;28;20382;-75
2024/03/31 08:28:16;;;;;;;15.02;3.90;;;12.50;99.90;;;;;;5033980;28;20117;-75
2024/03/31 08:30:42;;;;;;;24.17;5.40;;;12.60;99.90;;;;;;5030361;28;20105;-75
2024/03/31 08:33:07;;;;;;;30.35;4.28;;;12.70;99.90;;;;;;5029850;28;20037;-82
2024/03/31 08:35:33;;;;;;;18.58;3.95;;;12.80;99.90;;;;;;5033161;28;20022;-81
2024/03/31 08:37:58;;;;;;;17.63;3.80;;;13.00;99.90;;;;;;5027955;28;20320;-86
2024/03/31 08:40:30;;;;;;;24.15;3.58;;;13.20;99.90;;;;;;5030096;28;20103;-80
2024/03/31 08:43:05;;;;;;;23.75;3.42;;;13.40;99.90;;;;;;5028079;28;20060;-79
2024/03/31 08:45:31;;;;;;;21.42;2.72;;;13.50;99.90;;;;;;5024689;28;20377;-80
2024/03/31 08:47:59;;;;;;;25.63;3.88;;;13.60;99.90;;;;;;5029038;28;20052;-79
2024/03/31 08:50:25;;;;;;;20.70;2.75;;;13.50;99.90;;;;;;5037711;28;20038;-77
2024/03/31 08:52:51;;;;;;;21.00;3.17;;;13.50;99.90;;;;;;5032782;28;20022;-74
2024/03/31 08:55:18;;;;;;;19.02;3.20;;;13.50;99.90;;;;;;5036305;28;20030;-77
2024/03/31 08:57:44;;;;;;;24.02;3.40;;;13.60;99.90;;;;;;5029656;28;20071;-79
2024/03/31 09:00:10;;;;;;;28.83;3.95;;;13.70;99.90;;;;;;5028402;28;20447;-75
2024/03/31 09:02:38;;;;;;;22.88;2.80;;;13.90;99.90;;;;;;5028884;28;20099;-76
2024/03/31 09:05:04;;;;;;;23.00;4.38;;;13.90;99.90;;;;;;5022618;28;20061;-71
2024/03/31 09:07:32;;;;;;;19.23;3.15;;;14.10;99.90;;;;;;5024890;28;20116;-75
2024/03/31 09:09:58;;;;;;;18.55;4.38;;;14.30;99.90;;;;;;5028414;28;20029;-76
2024/03/31 09:12:24;;;;;;;16.33;3.13;;;14.60;99.90;;;;;;5028206;28;20026;-78
2024/03/31 09:14:50;;;;;;;18.08;3.58;;;14.80;99.90;;;;;;5028800;28;20033;-75
2024/03/31 09:17:16;;;;;;;18.40;2.78;;;15.10;99.90;;;;;;5029103;28;20364;-75
2024/03/31 09:19:41;;;;;;;21.02;3.28;;;15.30;99.90;;;;;;5027782;28;20025;-72
2024/03/31 09:22:11;;;;;;;21.67;3.03;;;15.50;99.90;;;;;;5028611;28;20031;-76
2024/03/31 09:24:38;;;;;;;22.70;3.38;;;15.70;99.90;;;;;;5027031;28;20029;-77
2024/03/31 09:27:05;;;;;;;21.45;3.08;;;16.00;99.90;;;;;;5028037;28;20052;-78
2024/03/31 09:29:31;;;;;;;19.50;2.97;;;16.00;99.90;;;;;;5023117;28;20025;-76
2024/03/31 09:32:05;;;;;;;22.55;3.03;;;16.00;99.90;;;;;;5027512;28;20469;-75
2024/03/31 09:34:30;;;;;;;23.85;3.35;;;15.90;99.90;;;;;;5028738;28;20095;-74
2024/03/31 09:36:56;;;;;;;20.73;3.58;;;15.80;99.90;;;;;;5025947;28;20471;-73
2024/03/31 09:39:21;;;;;;;18.33;2.65;;;15.80;99.90;;;;;;5028791;28;20037;-77
2024/03/31 09:41:49;;;;;;;25.77;3.22;;;15.80;99.90;;;;;;5025589;28;20030;-76
2024/03/31 09:44:15;;;;;;;30.88;3.25;;;15.90;99.90;;;;;;5028431;28;20128;-75
2024/03/31 09:46:41;;;;;;;18.83;2.70;;;16.00;99.90;;;;;;5024039;28;20539;-74
2024/03/31 09:49:10;;;;;;;17.55;3.25;;;15.90;99.90;;;;;;5028383;28;20026;-73
2024/03/31 09:51:41;;;;;;;20.50;3.25;;;15.90;99.90;;;;;;5027113;28;20616;-74
2024/03/31 09:54:13;;;;;;;30.17;3.92;;;15.90;99.90;;;;;;5027834;28;20060;-74
2024/03/31 09:56:52;;;;;;;19.58;3.47;;;16.00;99.90;;;;;;5028339;28;20072;-77
2024/03/31 09:59:23;;;;;;;21.15;3.40;;;16.10;99.90;;;;;;5023041;28;20030;-73
2024/03/31 10:01:50;;;;;;;21.60;3.58;;;16.10;99.90;;;;;;5027711;28;20021;-74
2024/03/31 10:04:21;;;;;;;27.25;4.90;;;16.00;99.90;;;;;;5028381;28;20041;-73
2024/03/31 10:06:48;;;;;;;29.90;3.72;;;16.10;99.90;;;;;;5024907;28;20063;-75
2024/03/31 10:09:16;;;;;;;22.92;3.42;;;16.30;99.90;;;;;;5027537;28;20076;-75
2024/03/31 10:11:42;;;;;;;18.05;3.25;;;16.50;99.90;;;;;;5027517;28;20544;-71
2024/03/31 10:14:09;;;;;;;26.50;5.03;;;16.70;99.90;;;;;;5026861;28;20029;-76
2024/03/31 10:16:36;;;;;;;18.55;3.00;;;16.90;99.90;;;;;;5026433;28;20082;-75
2024/03/31 10:19:02;;;;;;;22.38;3.85;;;17.10;99.90;;;;;;5025851;28;20042;-74
2024/03/31 10:21:29;;;;;;;30.35;3.60;;;17.30;99.90;;;;;;5026237;28;20482;-73
2024/03/31 10:23:55;;;;;;;21.17;3.65;;;17.40;99.90;;;;;;5027178;28;20082;-75
2024/03/31 10:26:22;;;;;;;20.48;3.53;;;17.50;99.90;;;;;;5026757;28;20025;-74
2024/03/31 10:28:50;;;;;;;15.00;3.05;;;17.50;99.90;;;;;;5027126;28;20374;-74
2024/03/31 10:31:16;;;;;;;21.67;3.33;;;17.60;99.90;;;;;;5027039;28;20029;-76
2024/03/31 10:33:42;;;;;;;19.30;3.15;;;17.70;99.90;;;;;;5022749;28;20111;-70
2024/03/31 10:36:10;;;;;;;30.30;3.90;;;17.80;99.90;;;;;;5027204;28;20037;-75
2024/03/31 10:38:42;;;;;;;19.30;4.13;;;17.80;99.90;;;;;;5029294;28;20033;-71
2024/03/31 10:41:07;;;;;;;18.60;3.13;;;17.80;99.90;;;;;;5023879;28;20496;-74
2024/03/31 10:43:33;;;;;;;23.30;4.22;;;17.90;99.90;;;;;;5027946;28;20104;-74
2024/03/31 10:46:00;;;;;;;18.80;3.50;;;18.10;99.90;;;;;;5026221;28;20340;-77
2024/03/31 10:48:27;;;;;;;19.50;3.78;;;18.30;99.60;;;;;;5027968;28;20064;-75
2024/03/31 10:50:52;;;;;;;22.25;4.30;;;18.50;99.30;;;;;;5024574;28;20545;-70
2024/03/31 10:53:25;;;;;;;24.65;4.05;;;18.60;98.90;;;;;;5027399;28;20065;-74
2024/03/31 10:55:51;;;;;;;22.75;4.00;;;18.60;98.50;;;;;;5021358;28;20509;-73
2024/03/31 10:58:17;;;;;;;16.85;2.35;;;18.80;97.40;;;;;;5026406;28;20060;-73
2024/03/31 11:00:44;;;;;;;19.52;2.80;;;19.10;96.60;;;;;;5027254;28;20362;-70
2024/03/31 11:03:11;;;;;;;22.98;3.28;;;19.30;96.20;;;;;;5029395;28;20025;-75
2024/03/31 11:05:40;;;;;;;20.73;3.67;;;19.40;95.80;;;;;;5041170;28;20115;-76
2024/03/31 11:08:08;;;;;;;29.13;3.65;;;19.50;95.70;;;;;;5044049;28;20022;-80
2024/03/31 11:10:35;;;;;;;26.77;3.42;;;19.60;95.80;;;;;;5050361;28;20105;-78
2024/03/31 11:13:02;;;;;;;23.27;3.38;;;19.40;95.30;;;;;;5044516;28;20183;-82
2024/03/31 11:15:28;;;;;;;21.98;3.40;;;19.30;95.20;;;;;;5041757;28;20033;-83
2024/03/31 11:17:54;;;;;;;17.08;2.53;;;19.20;94.70;;;;;;5024711;28;20386;-82
2024/03/31 11:20:20;;;;;;;18.65;2.72;;;19.20;94.70;;;;;;5028893;28;20026;-73
2024/03/31 11:22:46;;;;;;;21.92;3.05;;;19.20;94.60;;;;;;5025391;28;20455;-75
2024/03/31 11:25:12;;;;;;;23.10;4.00;;;19.20;94.40;;;;;;5026163;28;20036;-72
2024/03/31 11:27:38;;;;;;;18.35;3.00;;;19.20;94.60;;;;;;5026843;28;20037;-72
2024/03/31 11:30:04;;;;;;;22.08;3.50;;;19.10;94.80;;;;;;5023488;28;20033;-73
2024/03/31 11:32:31;;;;;;;21.98;3.63;;;19.10;94.90;;;;;;5027316;28;20028;-72
2024/03/31 11:34:57;;;;;;;22.40;3.33;;;19.10;94.90;;;;;;5026359;28;20133;-77
2024/03/31 11:37:23;;;;;;;18.85;3.05;;;19.10;94.90;;;;;;5027499;28;20052;-74
2024/03/31 11:39:49;;;;;;;16.88;3.20;;;19.20;95.00;;;;;;5028149;28;20033;-72
2024/03/31 11:42:15;;;;;;;21.13;3.80;;;19.30;94.60;;;;;;5022840;28;20029;-85
2024/03/31 11:44:42;;;;;;;15.98;3.30;;;19.40;94.50;;;;;;5028082;28;20062;-80
2024/03/31 11:47:10;;;;;;;17.08;3.92;;;19.40;94.40;;;;;;5021455;28;20026;-76
2024/03/31 11:49:36;;;;;;;19.90;3.90;;;19.40;94.60;;;;;;5027942;28;20045;-78
2024/03/31 11:52:02;;;;;;;20.05;3.45;;;19.60;94.60;;;;;;5025343;28;20033;-81
2024/03/31 11:54:31;;;;;;;15.48;2.85;;;;;;;;;;5029316;28;20051;-81
2024/03/31 11:56:57;;;;;;;16.50;3.60;;;21.20;99.90;;;;;;5028118;28;20167;-80
2024/03/31 11:59:23;;;;;;;20.27;4.05;;;21.30;99.90;;;;;;5025928;28;20022;-82
2024/03/31 12:01:56;;;;;;;20.25;3.30;;;21.80;92.30;;;;;;5030816;28;20026;-72
2024/03/31 12:04:22;;;;;;;31.40;4.00;;;22.10;92.80;;;;;;5031582;28;20351;-77
2024/03/31 12:06:49;;;;;;;33.67;3.72;;;22.60;91.20;;;;;;5030670;28;20025;-76
2024/03/31 12:09:15;;;;;;;22.15;3.83;;;22.60;90.70;;;;;;5029140;28;20478;-73
2024/03/31 12:11:45;;;;;;;22.65;3.40;;;22.20;90.70;;;;;;5029795;28;20049;-75
2024/03/31 12:14:11;;;;;;;16.83;4.55;;;21.80;91.10;;;;;;5030818;28;20392;-75
2024/03/31 12:16:42;;;;;;;20.90;4.43;;;21.40;91.00;;;;;;5028280;28;20025;-75
2024/03/31 12:19:08;;;;;;;20.77;3.08;;;21.20;91.50;;;;;;5035109;28;20046;-78
2024/03/31 12:21:34;;;;;;;24.90;4.15;;;21.00;91.10;;;;;;5031481;28;20064;-77
2024/03/31 12:24:01;;;;;;;25.73;3.75;;;21.00;91.30;;;;;;5028036;28;20037;-82
2024/03/31 12:26:27;;;;;;;19.77;3.70;;;21.00;91.30;;;;;;5030155;28;20145;-76
2024/03/31 12:28:53;;;;;;;19.15;3.13;;;20.90;90.90;;;;;;5029946;28;20099;-78
2024/03/31 12:31:20;;;;;;;22.60;3.85;;;20.90;91.20;;;;;;5031183;28;20041;-79
2024/03/31 12:33:48;;;;;;;16.27;3.00;;;20.90;90.80;;;;;;5024054;28;20033;-75
2024/03/31 12:36:14;;;;;;;24.25;3.75;;;20.90;90.70;;;;;;5028856;28;20064;-75
2024/03/31 12:38:44;;;;;;;22.67;3.35;;;20.80;91.10;;;;;;5030982;28;20065;-74
2024/03/31 12:41:10;;;;;;;23.05;3.83;;;20.80;91.20;;;;;;5028337;28;20068;-76
2024/03/31 12:43:36;;;;;;;15.40;3.03;;;20.90;90.90;;;;;;5028041;28;20155;-75
2024/03/31 12:46:15;;;;;;;11.60;2.63;;;21.10;90.80;;;;;;5020326;28;20486;-77
2024/03/31 12:48:44;;;;;;;12.63;3.00;;;21.50;90.30;;;;;;5027269;28;20382;-76
2024/03/31 12:51:23;;;;;;;23.45;3.90;;;22.30;90.00;;;;;;5028379;28;20033;-73
2024/03/31 12:53:49;;;;;;;26.27;4.03;;;23.30;87.30;;;;;;5028644;28;20022;-76
2024/03/31 12:56:16;;;;;;;19.95;3.72;;;23.80;85.60;;;;;;5028472;28;20462;-74
2024/03/31 12:58:42;;;;;;;19.90;3.50;;;24.00;92.30;;;;;;5030021;28;20037;-73
2024/03/31 13:01:08;;;;;;;23.63;3.70;;;23.70;92.30;;;;;;5028079;28;20057;-73
2024/03/31 13:03:39;;;;;;;17.65;3.55;;;23.30;91.80;;;;;;5030233;28;20524;-72
2024/03/31 13:06:07;;;;;;;12.20;2.67;;;22.90;92.20;;;;;;5013050;28;20046;-72